Time;durP1;ratioP1;P1;durP2;ratioP2;P2;SDS_P1;SDS_P2;PMS_P1;PMS_P2;Temp;Humidity;BMP_temperature;BMP_pressure;BME280_temperature;BME280_humidity;BME280_pressure;Samples;Min_cycle;Max_cycle;Signal;HPM_P1;HPM_P2
2024/01/30 00:01:13;;;;;;;20.37;11.30;;;9.50;57.20;;;;;;5111555;28;20748;-76
2024/01/30 00:03:39;;;;;;;17.43;11.60;;;9.50;57.70;;;;;;5112495;28;20594;-78
2024/01/30 00:06:04;;;;;;;17.02;11.27;;;9.50;57.40;;;;;;5112900;28;20383;-77
2024/01/30 00:08:30;;;;;;;19.08;11.40;;;9.50;57.50;;;;;;5111840;28;20862;-76
2024/01/30 00:10:55;;;;;;;19.13;12.02;;;9.50;57.10;;;;;;5111728;28;20392;-76
2024/01/30 00:13:21;;;;;;;19.55;11.90;;;9.50;57.10;;;;;;5112801;28;20444;-76
2024/01/30 00:15:46;;;;;;;19.20;11.60;;;9.40;57.20;;;;;;5116165;28;20442;-77
2024/01/30 00:18:12;;;;;;;24.93;13.03;;;9.40;57.00;;;;;;5113036;28;20408;-76
2024/01/30 00:20:38;;;;;;;16.67;11.30;;;9.50;56.80;;;;;;5094538;28;20391;-76
2024/01/30 00:23:04;;;;;;;19.73;12.03;;;9.50;56.50;;;;;;5112844;28;20381;-76
2024/01/30 00:25:30;;;;;;;18.17;11.25;;;9.50;56.60;;;;;;5113507;28;20377;-76
2024/01/30 00:27:55;;;;;;;22.70;12.00;;;9.40;56.90;;;;;;5115479;28;20388;-76
2024/01/30 00:30:21;;;;;;;21.45;12.30;;;9.40;56.80;;;;;;5125842;28;20384;-76
2024/01/30 00:32:46;;;;;;;21.10;12.27;;;9.40;56.80;;;;;;5094873;28;20432;-74
2024/01/30 00:35:12;;;;;;;16.95;11.52;;;9.40;57.10;;;;;;5134348;28;20441;-75
2024/01/30 00:37:38;;;;;;;20.08;10.70;;;9.30;57.50;;;;;;5135469;27;20503;-77
2024/01/30 00:40:03;;;;;;;20.40;12.07;;;9.30;57.30;;;;;;5135151;28;20394;-77
2024/01/30 00:42:29;;;;;;;19.90;11.98;;;9.30;57.10;;;;;;5117574;28;20394;-76
2024/01/30 00:44:55;;;;;;;20.00;12.13;;;9.30;57.30;;;;;;5133404;28;20406;-77
2024/01/30 00:47:20;;;;;;;20.13;11.90;;;9.30;57.40;;;;;;5138532;27;20388;-75
2024/01/30 00:49:46;;;;;;;19.43;12.30;;;9.30;57.30;;;;;;5139989;28;20400;-73
2024/01/30 00:52:11;;;;;;;21.70;12.02;;;9.30;56.80;;;;;;5139288;27;20383;-74
2024/01/30 00:54:37;;;;;;;22.33;12.60;;;9.20;57.20;;;;;;5138550;28;20384;-75
2024/01/30 00:57:03;;;;;;;17.50;11.80;;;9.20;57.40;;;;;;5121864;28;20444;-73
2024/01/30 00:59:29;;;;;;;20.90;12.90;;;9.10;57.90;;;;;;5120194;28;20404;-73
2024/01/30 01:01:55;;;;;;;21.23;13.10;;;9.10;58.50;;;;;;5138527;28;20395;-74
2024/01/30 01:04:21;;;;;;;18.67;11.93;;;9.00;58.80;;;;;;5121345;27;20384;-74
2024/01/30 01:06:47;;;;;;;24.42;12.80;;;9.00;59.00;;;;;;5137821;28;20383;-74
2024/01/30 01:09:12;;;;;;;20.10;11.55;;;9.00;58.90;;;;;;5128614;28;20384;-74
2024/01/30 01:11:38;;;;;;;20.00;12.50;;;9.10;58.40;;;;;;5124420;28;20765;-76
2024/01/30 01:14:04;;;;;;;21.47;12.90;;;9.10;58.70;;;;;;5124913;28;20386;-76
2024/01/30 01:16:30;;;;;;;20.63;13.32;;;8.90;58.90;;;;;;5109218;28;20395;-75
2024/01/30 01:18:56;;;;;;;18.15;11.60;;;9.00;58.80;;;;;;5121910;28;20426;-75
2024/01/30 01:21:21;;;;;;;16.33;11.50;;;9.10;58.20;;;;;;5119149;28;20380;-78
2024/01/30 01:23:47;;;;;;;21.67;11.70;;;9.00;58.20;;;;;;5118450;28;20384;-76
2024/01/30 01:26:13;;;;;;;21.63;12.13;;;8.90;59.10;;;;;;5117989;28;20391;-76
2024/01/30 01:28:41;;;;;;;21.38;10.98;;;8.90;59.30;;;;;;5116397;28;20381;-76
2024/01/30 01:31:07;;;;;;;24.67;13.15;;;8.90;59.70;;;;;;5116792;28;20417;-76
2024/01/30 01:33:33;;;;;;;18.42;12.23;;;8.90;59.40;;;;;;5118141;28;20387;-75
2024/01/30 01:35:59;;;;;;;23.53;12.40;;;8.90;59.70;;;;;;5098418;28;20385;-77
2024/01/30 01:38:25;;;;;;;21.60;12.20;;;8.90;59.80;;;;;;5116634;28;20767;-76
2024/01/30 01:40:51;;;;;;;20.73;12.80;;;8.80;60.00;;;;;;5116539;28;20377;-76
2024/01/30 01:43:16;;;;;;;19.70;11.60;;;8.70;60.60;;;;;;5117065;28;20372;-77
2024/01/30 01:45:42;;;;;;;20.33;12.23;;;8.70;61.20;;;;;;5116623;28;20791;-76
2024/01/30 01:48:09;;;;;;;17.17;11.87;;;8.70;60.80;;;;;;5117064;28;20442;-75
2024/01/30 01:50:36;;;;;;;21.73;12.18;;;8.80;60.30;;;;;;5097209;28;20411;-77
2024/01/30 01:53:02;;;;;;;20.23;11.77;;;8.90;60.20;;;;;;5097946;28;20780;-76
2024/01/30 01:55:30;;;;;;;21.20;12.35;;;8.80;60.40;;;;;;5117478;28;20742;-77
2024/01/30 01:57:56;;;;;;;23.38;12.18;;;8.70;61.40;;;;;;5117177;28;20464;-76
2024/01/30 02:00:23;;;;;;;20.23;12.40;;;8.80;60.70;;;;;;5116663;28;20380;-75
2024/01/30 02:02:50;;;;;;;21.80;11.20;;;8.80;60.40;;;;;;5114254;28;20384;-76
2024/01/30 02:05:16;;;;;;;20.00;12.50;;;8.80;60.40;;;;;;5115718;28;20527;-76
2024/01/30 02:07:43;;;;;;;19.15;11.63;;;8.80;60.60;;;;;;5115186;28;20541;-76
2024/01/30 02:10:12;;;;;;;18.25;11.85;;;8.80;60.50;;;;;;5126319;22;20404;-72
2024/01/30 02:12:38;;;;;;;19.15;11.57;;;8.90;59.80;;;;;;5072430;28;20390;-71
2024/01/30 02:15:04;;;;;;;19.80;11.90;;;8.80;60.10;;;;;;5072706;28;20451;-71
2024/01/30 02:17:30;;;;;;;20.08;11.85;;;8.80;59.90;;;;;;5072580;28;20490;-71
2024/01/30 02:19:56;;;;;;;21.67;11.98;;;8.80;59.90;;;;;;5072257;28;20519;-71
2024/01/30 02:22:22;;;;;;;22.85;11.20;;;8.80;60.50;;;;;;5072155;28;20391;-71
2024/01/30 02:24:48;;;;;;;21.52;12.15;;;8.70;60.40;;;;;;5072630;28;20882;-71
2024/01/30 02:27:13;;;;;;;19.23;11.80;;;8.70;60.20;;;;;;5072613;28;20475;-72
2024/01/30 02:29:39;;;;;;;19.80;11.50;;;8.70;61.00;;;;;;5072297;28;20793;-71
2024/01/30 02:32:05;;;;;;;19.03;11.87;;;8.80;60.10;;;;;;5072138;28;20441;-72
2024/01/30 02:34:31;;;;;;;22.60;11.63;;;8.80;60.00;;;;;;5072214;28;20900;-72
2024/01/30 02:36:57;;;;;;;17.27;11.57;;;8.80;60.00;;;;;;5072371;28;20382;-71
2024/01/30 02:39:22;;;;;;;16.60;11.02;;;8.80;60.40;;;;;;5071910;28;20460;-71
2024/01/30 02:41:48;;;;;;;19.43;11.47;;;8.90;59.80;;;;;;5071787;28;20473;-72
2024/01/30 02:44:13;;;;;;;21.87;12.10;;;8.80;60.50;;;;;;5072146;28;20471;-72
2024/01/30 02:46:39;;;;;;;23.23;11.77;;;8.70;60.30;;;;;;5072680;28;20387;-71
2024/01/30 02:49:04;;;;;;;20.08;11.75;;;8.70;60.50;;;;;;5073136;28;20399;-72
2024/01/30 02:51:30;;;;;;;18.00;10.90;;;8.70;60.80;;;;;;5073540;28;20380;-71
2024/01/30 02:53:55;;;;;;;20.37;11.17;;;8.90;60.50;;;;;;5073604;28;20388;-71
2024/01/30 02:56:21;;;;;;;22.20;11.47;;;9.00;58.90;;;;;;5073687;28;20383;-71
2024/01/30 02:58:47;;;;;;;15.25;10.77;;;9.00;58.50;;;;;;5075673;28;20410;-71
2024/01/30 03:01:12;;;;;;;18.38;11.45;;;8.90;59.40;;;;;;5076335;28;20396;-74
2024/01/30 03:03:39;;;;;;;20.20;11.17;;;8.90;59.20;;;;;;5073945;28;20394;-72
2024/01/30 03:06:05;;;;;;;18.37;11.50;;;8.90;59.10;;;;;;5056180;28;20399;-71
2024/01/30 03:08:31;;;;;;;16.88;10.30;;;8.90;59.00;;;;;;5072834;28;20870;-71
2024/01/30 03:10:56;;;;;;;21.45;11.00;;;8.90;59.40;;;;;;5071779;28;20399;-71
2024/01/30 03:13:23;;;;;;;17.52;10.90;;;8.90;59.20;;;;;;5071882;28;20392;-71
2024/01/30 03:15:49;;;;;;;21.67;10.48;;;8.90;59.00;;;;;;5071459;28;20393;-71
2024/01/30 03:18:14;;;;;;;18.48;10.55;;;8.90;59.10;;;;;;5071284;28;20399;-72
2024/01/30 03:20:40;;;;;;;17.10;11.15;;;9.00;59.20;;;;;;5071029;28;20380;-71
2024/01/30 03:23:05;;;;;;;18.00;10.80;;;8.90;59.30;;;;;;5053651;28;20380;-71
2024/01/30 03:25:31;;;;;;;19.33;10.93;;;8.90;59.50;;;;;;5071469;28;20774;-71
2024/01/30 03:27:56;;;;;;;17.83;10.17;;;8.90;59.50;;;;;;5071826;28;20750;-71
2024/01/30 03:30:22;;;;;;;19.90;11.10;;;8.90;58.70;;;;;;5071336;28;20893;-71
2024/01/30 03:32:47;;;;;;;16.73;9.80;;;8.90;59.00;;;;;;5071451;28;20384;-70
2024/01/30 03:35:13;;;;;;;18.70;10.83;;;8.90;59.30;;;;;;5071310;28;20467;-73
2024/01/30 03:37:39;;;;;;;17.10;10.47;;;9.00;58.60;;;;;;5071159;28;20399;-71
2024/01/30 03:40:05;;;;;;;18.00;10.30;;;9.10;58.20;;;;;;5071359;28;20491;-71
2024/01/30 03:42:33;;;;;;;19.77;10.93;;;9.00;58.30;;;;;;5071311;28;20407;-71
2024/01/30 03:44:59;;;;;;;16.83;10.47;;;9.00;57.80;;;;;;5053438;28;20980;-71
2024/01/30 03:47:24;;;;;;;18.30;10.10;;;9.10;57.70;;;;;;5070582;28;20387;-71
2024/01/30 03:49:50;;;;;;;16.83;10.00;;;9.00;58.00;;;;;;5070457;28;20418;-71
2024/01/30 03:52:15;;;;;;;19.90;10.93;;;8.90;58.60;;;;;;5070388;28;20378;-70
2024/01/30 03:54:41;;;;;;;19.15;11.23;;;8.90;59.00;;;;;;5070336;28;20383;-71
2024/01/30 03:57:06;;;;;;;19.85;10.35;;;8.90;59.50;;;;;;5071583;28;20429;-70
2024/01/30 03:59:32;;;;;;;15.57;10.32;;;9.00;58.40;;;;;;5071938;28;20415;-71
2024/01/30 04:01:58;;;;;;;18.15;10.50;;;8.90;58.90;;;;;;5070998;28;20384;-72
2024/01/30 04:04:23;;;;;;;17.93;10.77;;;8.90;58.90;;;;;;5070269;28;20387;-71
2024/01/30 04:06:49;;;;;;;18.60;10.47;;;8.90;58.70;;;;;;5070407;28;20384;-72
2024/01/30 04:09:14;;;;;;;17.10;10.47;;;8.80;59.70;;;;;;5070227;28;20384;-73
2024/01/30 04:11:40;;;;;;;19.50;10.70;;;8.80;59.50;;;;;;5069868;28;20383;-71
2024/01/30 04:14:06;;;;;;;18.25;10.77;;;8.90;59.10;;;;;;5071589;28;20850;-71
2024/01/30 04:16:32;;;;;;;16.85;11.13;;;8.80;59.20;;;;;;5074160;28;20391;-71
2024/01/30 04:18:58;;;;;;;19.40;10.73;;;8.80;59.50;;;;;;5074344;28;20391;-71
2024/01/30 04:21:23;;;;;;;21.77;11.00;;;8.80;59.70;;;;;;5056248;28;20388;-71
2024/01/30 04:23:50;;;;;;;16.43;10.30;;;8.80;60.00;;;;;;5074071;28;20526;-71
2024/01/30 04:26:16;;;;;;;18.10;10.90;;;8.80;60.00;;;;;;5074180;28;20440;-71
2024/01/30 04:28:42;;;;;;;23.50;11.43;;;8.70;60.40;;;;;;5074059;28;20391;-71
2024/01/30 04:31:08;;;;;;;19.10;11.05;;;8.80;59.90;;;;;;5074107;28;20383;-71
2024/01/30 04:33:34;;;;;;;18.38;11.00;;;8.70;60.60;;;;;;5074147;28;20391;-72
2024/01/30 04:35:59;;;;;;;18.40;11.18;;;8.80;60.00;;;;;;5056076;28;20437;-71
2024/01/30 04:38:25;;;;;;;22.67;11.20;;;8.80;60.10;;;;;;5073791;28;20399;-72
2024/01/30 04:40:50;;;;;;;18.70;10.63;;;8.80;59.90;;;;;;5073831;28;20432;-71
2024/01/30 04:43:16;;;;;;;23.17;11.48;;;8.80;59.70;;;;;;5074494;28;20379;-71
2024/01/30 04:45:41;;;;;;;19.67;10.70;;;8.80;59.90;;;;;;5073600;28;20390;-71
2024/01/30 04:48:07;;;;;;;18.88;10.93;;;8.80;59.50;;;;;;5056029;28;20490;-72
2024/01/30 04:50:33;;;;;;;19.80;11.40;;;8.90;58.90;;;;;;5073373;28;20525;-71
2024/01/30 04:52:58;;;;;;;17.60;11.00;;;8.80;59.20;;;;;;5073688;28;20789;-71
2024/01/30 04:55:24;;;;;;;21.13;11.10;;;8.70;59.90;;;;;;5073699;28;20750;-71
2024/01/30 04:57:50;;;;;;;15.85;10.80;;;8.70;60.60;;;;;;5073839;28;20402;-72
2024/01/30 05:00:16;;;;;;;18.77;10.75;;;8.70;60.50;;;;;;5073693;28;20386;-72
2024/01/30 05:02:41;;;;;;;20.75;11.90;;;8.70;60.40;;;;;;5073355;28;20384;-72
2024/01/30 05:05:07;;;;;;;16.60;10.90;;;8.80;60.50;;;;;;5073595;28;20379;-71
2024/01/30 05:07:33;;;;;;;17.15;11.10;;;8.80;59.90;;;;;;5073621;28;20387;-73
2024/01/30 05:09:59;;;;;;;23.00;12.07;;;8.80;60.10;;;;;;5073232;28;20745;-72
2024/01/30 05:12:24;;;;;;;17.70;11.43;;;8.80;59.40;;;;;;5055405;28;20893;-72
2024/01/30 05:14:50;;;;;;;17.57;10.40;;;8.80;60.00;;;;;;5073775;28;20395;-71
2024/01/30 05:17:15;;;;;;;18.03;10.40;;;8.90;59.50;;;;;;5074855;28;20391;-73
2024/01/30 05:19:41;;;;;;;19.37;11.30;;;8.80;59.90;;;;;;5073567;28;20384;-72
2024/01/30 05:22:07;;;;;;;18.50;11.33;;;8.80;60.20;;;;;;5073812;28;20631;-72
2024/01/30 05:24:33;;;;;;;16.17;10.60;;;8.70;60.00;;;;;;5073372;28;20380;-73
2024/01/30 05:26:58;;;;;;;20.92;10.98;;;8.70;60.70;;;;;;5073023;28;20383;-72
2024/01/30 05:29:24;;;;;;;15.75;11.05;;;8.70;61.20;;;;;;5079488;28;20390;-72
2024/01/30 05:31:49;;;;;;;17.48;11.40;;;8.70;60.80;;;;;;5077235;28;20391;-71
2024/01/30 05:34:15;;;;;;;19.50;11.20;;;8.70;60.40;;;;;;5077111;28;20466;-72
2024/01/30 05:36:41;;;;;;;16.73;10.98;;;8.70;60.40;;;;;;5074340;28;20422;-71
2024/01/30 05:39:07;;;;;;;19.60;11.10;;;8.60;61.00;;;;;;5076801;28;20435;-72
2024/01/30 05:41:32;;;;;;;17.93;11.67;;;8.60;61.30;;;;;;5054896;28;20444;-74
2024/01/30 05:43:58;;;;;;;19.83;10.90;;;8.50;62.20;;;;;;5072995;28;20414;-72
2024/01/30 05:46:23;;;;;;;25.23;12.37;;;8.50;62.40;;;;;;5072735;28;20380;-72
2024/01/30 05:48:49;;;;;;;18.27;10.97;;;8.50;63.00;;;;;;5072726;28;20398;-72
2024/01/30 05:51:15;;;;;;;20.20;11.23;;;8.50;62.90;;;;;;5072314;28;20530;-72
2024/01/30 05:53:40;;;;;;;21.27;11.55;;;8.50;63.10;;;;;;5072762;28;20383;-72
2024/01/30 05:56:06;;;;;;;20.80;12.18;;;8.40;63.10;;;;;;5072894;28;20458;-73
2024/01/30 05:58:32;;;;;;;18.58;12.18;;;8.40;64.10;;;;;;5072862;28;20400;-72
2024/01/30 06:00:58;;;;;;;18.30;11.30;;;8.30;64.50;;;;;;5073439;28;20511;-72
2024/01/30 06:03:23;;;;;;;18.17;12.13;;;8.40;64.70;;;;;;5073125;28;20391;-72
2024/01/30 06:05:49;;;;;;;19.37;11.53;;;8.40;65.10;;;;;;5073200;28;20383;-72
2024/01/30 06:08:14;;;;;;;20.73;11.83;;;8.40;64.60;;;;;;5078539;28;20388;-72
2024/01/30 06:10:40;;;;;;;19.10;11.87;;;8.40;64.40;;;;;;5082297;28;20416;-71
2024/01/30 06:13:06;;;;;;;19.60;11.57;;;8.40;64.40;;;;;;5064146;28;20406;-72
2024/01/30 06:15:32;;;;;;;23.37;11.80;;;8.50;63.80;;;;;;5080566;28;20390;-72
2024/01/30 06:17:58;;;;;;;23.02;12.18;;;8.60;62.90;;;;;;5081336;28;20491;-73
2024/01/30 06:20:24;;;;;;;17.83;11.48;;;8.60;62.20;;;;;;5082529;28;20383;-72
2024/01/30 06:22:50;;;;;;;18.08;11.57;;;8.60;63.00;;;;;;5079339;28;20747;-71
2024/01/30 06:25:16;;;;;;;22.65;11.55;;;8.60;62.30;;;;;;5081366;28;20391;-73
2024/01/30 06:27:42;;;;;;;19.20;11.40;;;8.70;62.10;;;;;;5081567;28;20394;-72
2024/01/30 06:30:08;;;;;;;16.00;10.68;;;8.60;62.70;;;;;;5082145;28;20479;-71
2024/01/30 06:32:35;;;;;;;20.10;11.85;;;8.70;60.90;;;;;;5061944;28;20459;-72
2024/01/30 06:35:01;;;;;;;17.93;11.43;;;8.70;61.60;;;;;;5079518;28;20388;-72
2024/01/30 06:37:27;;;;;;;17.15;10.65;;;8.70;61.60;;;;;;5068417;28;20388;-72
2024/01/30 06:39:52;;;;;;;18.37;10.97;;;8.70;61.00;;;;;;5069283;28;20781;-72
2024/01/30 06:42:18;;;;;;;18.08;11.05;;;8.80;60.80;;;;;;5063419;28;20476;-72
2024/01/30 06:44:44;;;;;;;16.83;10.70;;;8.80;61.20;;;;;;5070630;28;20403;-72
2024/01/30 06:47:10;;;;;;;17.27;11.80;;;8.70;61.30;;;;;;5067453;28;20504;-73
2024/01/30 06:49:38;;;;;;;20.40;11.30;;;8.70;61.40;;;;;;5069901;28;21011;-71
2024/01/30 06:52:05;;;;;;;21.02;11.30;;;8.70;62.30;;;;;;5072542;28;20377;-77
2024/01/30 06:54:32;;;;;;;14.20;10.18;;;8.70;61.90;;;;;;5068261;28;20385;-77
2024/01/30 06:56:58;;;;;;;15.52;10.60;;;8.80;61.30;;;;;;5066369;28;20463;-73
2024/01/30 06:59:27;;;;;;;16.05;10.70;;;8.80;61.20;;;;;;5065556;28;20411;-72
2024/01/30 07:01:52;;;;;;;17.20;10.40;;;8.90;60.10;;;;;;5066760;28;20761;-72
2024/01/30 07:04:18;;;;;;;17.80;9.90;;;8.90;60.40;;;;;;5073530;28;20372;-72
2024/01/30 07:06:44;;;;;;;18.05;10.38;;;8.90;59.70;;;;;;5061909;28;20385;-72
2024/01/30 07:09:09;;;;;;;18.88;11.05;;;9.00;60.10;;;;;;5062648;28;20391;-73
2024/01/30 07:11:35;;;;;;;17.17;10.90;;;8.90;60.10;;;;;;5062199;28;20476;-72
2024/01/30 07:14:03;;;;;;;15.88;10.45;;;8.90;60.30;;;;;;5058258;28;20390;-72
2024/01/30 07:16:29;;;;;;;15.32;11.00;;;8.90;60.40;;;;;;5064316;28;20950;-71
2024/01/30 07:18:54;;;;;;;17.93;10.13;;;8.90;60.30;;;;;;5076910;28;20517;-71
2024/01/30 07:21:21;;;;;;;21.83;10.40;;;8.90;60.10;;;;;;5079384;28;20487;-73
2024/01/30 07:23:47;;;;;;;19.50;10.70;;;8.90;60.00;;;;;;5076959;28;20383;-72
2024/01/30 07:26:12;;;;;;;17.13;10.45;;;8.90;60.30;;;;;;5067810;28;20389;-74
2024/01/30 07:28:38;;;;;;;18.77;10.70;;;8.90;59.70;;;;;;5060017;28;20423;-74
2024/01/30 07:31:04;;;;;;;20.13;10.40;;;8.90;60.40;;;;;;5051524;28;20423;-72
2024/01/30 07:33:29;;;;;;;17.50;10.53;;;8.90;60.20;;;;;;5042321;28;20392;-72
2024/01/30 07:35:55;;;;;;;18.67;9.87;;;8.90;60.20;;;;;;5070708;28;20394;-74
2024/01/30 07:38:21;;;;;;;16.20;9.93;;;9.00;59.20;;;;;;5065230;28;20404;-74
2024/01/30 07:40:46;;;;;;;22.60;11.40;;;9.10;59.10;;;;;;5051490;28;20384;-72
2024/01/30 07:43:12;;;;;;;16.73;10.27;;;9.10;59.00;;;;;;5072786;28;20399;-74
2024/01/30 07:45:38;;;;;;;17.00;10.13;;;9.20;58.40;;;;;;5074594;28;20379;-73
2024/01/30 07:48:07;;;;;;;16.77;10.23;;;9.20;58.20;;;;;;5072296;28;20380;-73
2024/01/30 07:50:32;;;;;;;20.48;10.43;;;9.10;58.40;;;;;;5070861;28;20403;-73
2024/01/30 07:52:59;;;;;;;22.20;10.98;;;9.20;58.00;;;;;;5071728;28;20379;-73
2024/01/30 07:55:28;;;;;;;15.77;10.40;;;9.20;57.80;;;;;;5052914;28;20398;-74
2024/01/30 07:57:54;;;;;;;19.08;10.18;;;9.20;57.80;;;;;;5073152;28;20490;-72
2024/01/30 08:00:22;;;;;;;18.35;10.30;;;9.30;57.40;;;;;;5072099;28;20472;-73
2024/01/30 08:02:47;;;;;;;20.77;11.38;;;9.30;57.60;;;;;;5071317;28;20757;-72
2024/01/30 08:05:15;;;;;;;18.33;10.40;;;9.30;57.70;;;;;;5070589;28;20496;-73
2024/01/30 08:07:42;;;;;;;17.27;10.90;;;9.40;57.00;;;;;;5070995;28;20433;-72
2024/01/30 08:12:34;;;;;;;19.20;10.57;;;9.40;57.00;;;;;;5071944;22;20838;-76
2024/01/30 08:14:59;;;;;;;16.70;9.87;;;9.40;57.10;;;;;;5034809;28;20389;-76
2024/01/30 08:17:25;;;;;;;19.00;11.13;;;9.40;57.30;;;;;;5052266;28;20519;-77
2024/01/30 08:19:51;;;;;;;22.02;11.52;;;9.50;57.00;;;;;;5051512;28;20389;-77
2024/01/30 08:22:16;;;;;;;17.23;9.60;;;9.50;56.80;;;;;;5051278;28;20377;-76
2024/01/30 08:24:42;;;;;;;17.00;10.43;;;9.70;55.50;;;;;;5051559;28;20792;-77
2024/01/30 08:27:11;;;;;;;21.15;11.02;;;9.60;55.50;;;;;;5054548;28;20373;-75
2024/01/30 08:29:37;;;;;;;18.05;11.15;;;9.60;55.40;;;;;;5055281;28;20390;-76
2024/01/30 08:32:05;;;;;;;18.30;10.15;;;9.70;55.50;;;;;;5034424;28;20408;-77
2024/01/30 08:34:30;;;;;;;15.48;9.55;;;9.80;54.70;;;;;;5033497;28;20492;-76
2024/01/30 08:36:56;;;;;;;19.52;10.55;;;9.80;54.60;;;;;;5054350;28;20425;-77
2024/01/30 08:39:21;;;;;;;16.60;9.70;;;9.80;54.50;;;;;;5034258;28;20442;-77
2024/01/30 08:41:47;;;;;;;17.30;10.50;;;9.80;54.50;;;;;;5053555;28;20424;-76
2024/01/30 08:44:12;;;;;;;17.37;10.30;;;9.80;54.60;;;;;;5050996;28;20381;-77
2024/01/30 08:46:38;;;;;;;20.80;10.70;;;9.80;54.30;;;;;;5051232;28;20414;-75
2024/01/30 08:49:04;;;;;;;18.67;10.70;;;9.90;54.30;;;;;;5054294;28;20396;-76
2024/01/30 08:51:30;;;;;;;18.65;11.07;;;10.00;53.40;;;;;;5050076;28;20388;-77
2024/01/30 08:53:55;;;;;;;17.20;10.40;;;10.00;53.50;;;;;;5051167;28;20385;-76
2024/01/30 08:56:21;;;;;;;16.27;10.30;;;10.10;53.40;;;;;;5051887;28;20476;-76
2024/01/30 08:58:47;;;;;;;22.67;10.67;;;10.10;52.70;;;;;;5051975;28;20401;-78
2024/01/30 09:01:12;;;;;;;16.20;10.40;;;10.10;53.00;;;;;;5052211;28;20389;-76
2024/01/30 09:03:40;;;;;;;15.27;10.43;;;10.00;53.00;;;;;;5054147;28;20790;-76
2024/01/30 09:06:12;;;;;;;19.77;11.30;;;10.20;52.50;;;;;;5054253;28;20382;-76
2024/01/30 09:08:38;;;;;;;16.27;10.10;;;10.20;52.20;;;;;;5053826;28;20385;-77
2024/01/30 09:11:14;;;;;;;18.25;11.00;;;10.20;52.10;;;;;;5053616;28;20954;-78
2024/01/30 09:13:40;;;;;;;14.80;10.30;;;10.40;51.50;;;;;;5055195;28;20876;-76
2024/01/30 09:16:06;;;;;;;14.48;9.90;;;10.50;50.60;;;;;;5056256;28;20389;-76
2024/01/30 09:18:32;;;;;;;20.67;11.38;;;10.40;50.90;;;;;;5056015;28;20409;-76
2024/01/30 09:20:58;;;;;;;21.27;11.10;;;10.40;50.80;;;;;;5056765;28;20385;-77
2024/01/30 09:23:24;;;;;;;23.65;10.82;;;10.60;50.50;;;;;;5056325;28;20472;-75
2024/01/30 09:25:50;;;;;;;23.48;11.10;;;10.60;50.00;;;;;;5056796;28;20386;-77
2024/01/30 09:28:17;;;;;;;18.50;10.82;;;10.60;49.90;;;;;;5057286;28;20388;-76
2024/01/30 09:30:42;;;;;;;23.05;11.50;;;10.80;49.40;;;;;;5055381;28;20396;-76
2024/01/30 09:33:08;;;;;;;21.33;10.50;;;10.80;49.00;;;;;;5056263;28;20397;-77
2024/01/30 09:35:33;;;;;;;16.40;10.53;;;10.80;49.00;;;;;;5058238;28;20389;-77
2024/01/30 09:37:59;;;;;;;17.13;10.50;;;10.90;49.10;;;;;;5056447;28;20819;-77
2024/01/30 09:40:25;;;;;;;22.40;11.63;;;11.00;48.20;;;;;;5056670;28;20392;-76
2024/01/30 09:42:51;;;;;;;17.87;11.00;;;11.00;48.00;;;;;;5055713;28;20473;-77
2024/01/30 09:45:20;;;;;;;18.40;10.73;;;11.20;47.30;;;;;;5056174;28;20408;-76
2024/01/30 09:47:46;;;;;;;18.25;10.82;;;11.40;46.20;;;;;;5055652;28;20416;-77
2024/01/30 09:50:13;;;;;;;20.15;11.10;;;11.40;46.00;;;;;;5057776;28;20393;-78
2024/01/30 09:52:39;;;;;;;15.35;10.15;;;11.40;46.20;;;;;;5056080;28;20389;-77
2024/01/30 09:55:05;;;;;;;16.57;10.10;;;11.40;46.30;;;;;;5056630;28;20388;-78
2024/01/30 09:57:31;;;;;;;21.05;10.77;;;11.50;45.70;;;;;;5056426;28;20393;-78
2024/01/30 09:59:57;;;;;;;16.35;10.40;;;11.50;45.90;;;;;;5055159;28;20884;-76
2024/01/30 10:02:23;;;;;;;18.90;10.35;;;11.50;45.70;;;;;;5055433;28;20920;-77
2024/01/30 10:04:50;;;;;;;17.50;10.60;;;11.60;45.30;;;;;;5056579;28;20424;-77
2024/01/30 10:07:16;;;;;;;20.58;11.15;;;11.60;45.20;;;;;;5054311;28;20381;-78
2024/01/30 10:09:41;;;;;;;21.00;11.07;;;11.60;45.70;;;;;;5053244;28;20795;-77
2024/01/30 10:12:11;;;;;;;21.88;11.63;;;11.70;44.90;;;;;;5053110;28;20385;-76
2024/01/30 10:14:40;;;;;;;25.45;12.23;;;11.70;45.00;;;;;;5053513;28;20937;-76
2024/01/30 10:17:08;;;;;;;17.83;10.55;;;11.80;44.30;;;;;;5053705;28;20400;-76
2024/01/30 10:19:34;;;;;;;21.08;10.73;;;11.90;43.90;;;;;;5052793;28;20413;-77
2024/01/30 10:22:04;;;;;;;18.73;10.83;;;11.90;44.10;;;;;;5052963;28;20481;-76
2024/01/30 10:24:29;;;;;;;20.10;11.52;;;12.00;44.40;;;;;;5052923;28;20373;-77
2024/01/30 10:26:55;;;;;;;20.47;11.13;;;12.20;43.20;;;;;;5053065;28;20502;-76
2024/01/30 10:29:21;;;;;;;19.55;10.38;;;12.40;41.70;;;;;;5034837;28;20389;-75
2024/01/30 10:31:58;;;;;;;19.15;11.55;;;12.60;41.30;;;;;;5052053;28;20382;-76
2024/01/30 10:34:23;;;;;;;24.55;11.15;;;12.60;40.80;;;;;;5052741;28;20385;-76
2024/01/30 10:36:50;;;;;;;19.83;11.80;;;12.50;41.40;;;;;;5056417;28;20393;-76
2024/01/30 10:39:17;;;;;;;30.58;15.55;;;12.50;41.40;;;;;;5052327;28;20425;-76
2024/01/30 10:41:44;;;;;;;18.83;10.65;;;12.40;41.50;;;;;;5052602;28;20401;-76
2024/01/30 10:44:10;;;;;;;23.30;12.43;;;12.40;41.80;;;;;;5052526;28;20381;-75
2024/01/30 10:46:38;;;;;;;20.98;11.68;;;12.30;41.90;;;;;;5051899;28;20370;-77
2024/01/30 10:49:04;;;;;;;23.35;12.32;;;12.40;42.00;;;;;;5053223;28;20400;-77
2024/01/30 10:51:31;;;;;;;20.35;10.90;;;12.50;42.00;;;;;;5052099;28;20476;-76
2024/01/30 10:53:57;;;;;;;19.40;11.38;;;12.50;41.80;;;;;;5052494;28;20381;-75
2024/01/30 10:56:24;;;;;;;20.92;10.65;;;12.70;41.60;;;;;;5052166;28;20477;-76
2024/01/30 10:58:53;;;;;;;19.80;11.23;;;12.70;41.00;;;;;;5052505;28;20431;-77
2024/01/30 11:01:22;;;;;;;20.77;11.18;;;12.90;40.30;;;;;;5052217;28;20385;-77
2024/01/30 11:03:50;;;;;;;18.50;11.67;;;12.90;40.30;;;;;;5052680;28;20482;-77
2024/01/30 11:06:18;;;;;;;19.55;10.80;;;12.80;40.60;;;;;;5052097;28;20385;-78
2024/01/30 11:08:45;;;;;;;21.03;11.47;;;12.80;40.90;;;;;;5053424;28;20472;-77
2024/01/30 11:11:10;;;;;;;21.50;11.43;;;13.00;40.10;;;;;;5053006;28;20389;-77
2024/01/30 11:13:36;;;;;;;19.70;10.67;;;13.10;39.70;;;;;;5052240;28;20393;-76
2024/01/30 11:16:03;;;;;;;19.38;11.10;;;13.20;39.60;;;;;;5053425;28;20439;-76
2024/01/30 11:18:32;;;;;;;15.80;10.00;;;13.10;39.80;;;;;;5051783;28;20459;-76
2024/01/30 11:21:01;;;;;;;18.30;10.68;;;13.10;39.80;;;;;;5051585;28;20432;-76
2024/01/30 11:23:33;;;;;;;20.33;10.25;;;13.20;39.50;;;;;;5051585;28;20378;-78
2024/01/30 11:25:58;;;;;;;23.90;11.23;;;13.10;39.80;;;;;;5051750;28;20381;-76
2024/01/30 11:28:24;;;;;;;17.30;11.00;;;13.10;39.60;;;;;;5051537;28;20392;-77
2024/01/30 11:30:50;;;;;;;23.27;11.17;;;13.10;40.10;;;;;;5051036;28;20500;-77
2024/01/30 11:33:30;;;;;;;18.27;10.75;;;13.10;39.90;;;;;;5052535;28;20389;-77
2024/01/30 11:36:06;;;;;;;19.67;10.68;;;13.20;39.50;;;;;;5052200;28;20377;-77
2024/01/30 11:38:32;;;;;;;20.83;11.10;;;13.10;39.60;;;;;;5051188;28;20404;-76
2024/01/30 11:40:58;;;;;;;25.23;13.60;;;13.20;39.70;;;;;;5051767;28;20396;-76
2024/01/30 11:43:24;;;;;;;17.10;10.88;;;13.40;39.10;;;;;;5050969;28;20396;-76
2024/01/30 11:45:50;;;;;;;27.17;11.18;;;13.20;39.60;;;;;;5033106;28;20373;-75
2024/01/30 11:48:16;;;;;;;23.35;11.20;;;13.00;39.90;;;;;;5051231;28;20381;-76
2024/01/30 11:50:42;;;;;;;20.10;11.50;;;12.90;40.70;;;;;;5050904;28;20445;-76
2024/01/30 11:53:08;;;;;;;22.58;11.73;;;12.80;40.90;;;;;;5050908;28;20382;-77
2024/01/30 11:55:35;;;;;;;20.02;11.18;;;13.00;40.80;;;;;;5050784;28;20393;-77
2024/01/30 11:58:02;;;;;;;20.90;10.73;;;12.90;41.00;;;;;;5050777;28;20964;-76
2024/01/30 12:00:27;;;;;;;18.15;11.48;;;12.90;41.50;;;;;;5050594;28;20453;-77
2024/01/30 12:03:00;;;;;;;18.00;10.90;;;12.80;41.70;;;;;;5050565;28;20792;-76
2024/01/30 12:05:26;;;;;;;20.98;10.73;;;12.90;41.80;;;;;;5051096;28;20380;-77
2024/01/30 12:07:52;;;;;;;20.65;11.07;;;12.80;42.10;;;;;;5051675;28;20812;-76
2024/01/30 12:10:17;;;;;;;20.85;12.25;;;12.70;42.40;;;;;;5050431;28;20468;-77
2024/01/30 12:12:46;;;;;;;20.40;10.85;;;12.80;42.30;;;;;;5050962;28;20385;-77
2024/01/30 12:15:13;;;;;;;20.75;11.75;;;12.80;42.50;;;;;;5051091;28;20420;-78
2024/01/30 12:17:38;;;;;;;21.30;10.80;;;13.00;42.70;;;;;;5050355;28;21092;-76
2024/01/30 12:20:15;;;;;;;23.70;11.30;;;13.00;42.40;;;;;;5052230;28;20470;-77
2024/01/30 12:22:42;;;;;;;22.58;11.00;;;13.10;42.40;;;;;;5050710;28;20385;-76
2024/01/30 12:25:11;;;;;;;21.13;10.90;;;13.00;42.40;;;;;;5052235;28;20426;-77
2024/01/30 12:27:42;;;;;;;18.60;10.90;;;13.00;42.70;;;;;;5050535;28;20389;-75
2024/01/30 12:30:14;;;;;;;20.35;11.20;;;13.10;42.60;;;;;;5050827;28;20394;-77